sensor_id;sensor_type;location;lat;lon;timestamp;P1;durP1;ratioP1;P2;durP2;ratioP2
37091;SDS011;23005;51.998;4.502;2023-05-02T00:01:00;32.78;;;20.98;;
37091;SDS011;23005;51.998;4.502;2023-05-02T00:02:21;34.90;;;22.13;;
37091;SDS011;23005;51.998;4.502;2023-05-02T00:03:41;33.45;;;22.05;;
37091;SDS011;23005;51.998;4.502;2023-05-02T00:05:02;33.00;;;21.27;;
37091;SDS011;23005;51.998;4.502;2023-05-02T00:06:23;32.60;;;21.08;;
37091;SDS011;23005;51.998;4.502;2023-05-02T00:07:43;32.80;;;21.92;;
37091;SDS011;23005;51.998;4.502;2023-05-02T00:09:04;36.75;;;21.85;;
37091;SDS011;23005;51.998;4.502;2023-05-02T00:10:25;36.72;;;24.05;;
37091;SDS011;23005;51.998;4.502;2023-05-02T00:11:46;35.70;;;22.20;;
37091;SDS011;23005;51.998;4.502;2023-05-02T00:13:06;34.67;;;21.50;;
37091;SDS011;23005;51.998;4.502;2023-05-02T00:14:27;34.60;;;21.50;;
37091;SDS011;23005;51.998;4.502;2023-05-02T00:15:48;32.75;;;21.40;;
37091;SDS011;23005;51.998;4.502;2023-05-02T00:17:09;33.65;;;21.33;;
37091;SDS011;23005;51.998;4.502;2023-05-02T00:18:35;32.60;;;21.85;;
37091;SDS011;23005;51.998;4.502;2023-05-02T00:19:56;39.65;;;22.30;;
37091;SDS011;23005;51.998;4.502;2023-05-02T00:21:17;35.05;;;21.20;;
37091;SDS011;23005;51.998;4.502;2023-05-02T00:22:37;31.98;;;20.85;;
37091;SDS011;23005;51.998;4.502;2023-05-02T00:23:58;39.67;;;19.70;;
37091;SDS011;23005;51.998;4.502;2023-05-02T00:25:19;31.83;;;20.77;;
37091;SDS011;23005;51.998;4.502;2023-05-02T00:26:39;37.30;;;20.90;;
37091;SDS011;23005;51.998;4.502;2023-05-02T00:28:00;36.13;;;21.52;;
37091;SDS011;23005;51.998;4.502;2023-05-02T00:29:21;36.00;;;19.67;;
37091;SDS011;23005;51.998;4.502;2023-05-02T00:30:42;35.22;;;19.55;;
37091;SDS011;23005;51.998;4.502;2023-05-02T00:32:04;35.30;;;17.73;;
37091;SDS011;23005;51.998;4.502;2023-05-02T00:33:26;31.80;;;16.23;;
37091;SDS011;23005;51.998;4.502;2023-05-02T00:34:47;25.23;;;13.65;;
37091;SDS011;23005;51.998;4.502;2023-05-02T00:36:12;28.30;;;14.90;;
37091;SDS011;23005;51.998;4.502;2023-05-02T00:37:33;24.30;;;12.65;;
37091;SDS011;23005;51.998;4.502;2023-05-02T00:38:54;25.08;;;13.25;;
37091;SDS011;23005;51.998;4.502;2023-05-02T00:40:14;21.13;;;10.73;;
37091;SDS011;23005;51.998;4.502;2023-05-02T00:41:35;28.80;;;11.20;;
37091;SDS011;23005;51.998;4.502;2023-05-02T00:42:56;27.67;;;11.35;;
37091;SDS011;23005;51.998;4.502;2023-05-02T00:44:16;22.13;;;10.77;;
37091;SDS011;23005;51.998;4.502;2023-05-02T00:45:37;21.30;;;10.93;;
37091;SDS011;23005;51.998;4.502;2023-05-02T00:46:58;16.63;;;9.68;;
37091;SDS011;23005;51.998;4.502;2023-05-02T00:48:20;27.52;;;9.88;;
37091;SDS011;23005;51.998;4.502;2023-05-02T00:49:42;19.67;;;8.35;;
37091;SDS011;23005;51.998;4.502;2023-05-02T00:51:03;24.17;;;8.70;;
37091;SDS011;23005;51.998;4.502;2023-05-02T00:52:24;14.80;;;6.65;;
37091;SDS011;23005;51.998;4.502;2023-05-02T00:53:44;21.90;;;6.37;;
37091;SDS011;23005;51.998;4.502;2023-05-02T00:55:05;16.67;;;6.93;;
37091;SDS011;23005;51.998;4.502;2023-05-02T00:56:26;17.80;;;6.75;;
37091;SDS011;23005;51.998;4.502;2023-05-02T00:57:47;24.95;;;7.70;;
37091;SDS011;23005;51.998;4.502;2023-05-02T00:59:08;16.80;;;7.68;;
37091;SDS011;23005;51.998;4.502;2023-05-02T01:00:30;20.83;;;6.53;;
37091;SDS011;23005;51.998;4.502;2023-05-02T01:01:57;18.45;;;6.68;;
37091;SDS011;23005;51.998;4.502;2023-05-02T01:03:31;20.40;;;6.55;;
37091;SDS011;23005;51.998;4.502;2023-05-02T01:05:01;19.17;;;7.18;;
37091;SDS011;23005;51.998;4.502;2023-05-02T01:06:30;25.00;;;8.50;;
37091;SDS011;23005;51.998;4.502;2023-05-02T01:07:59;24.25;;;7.03;;
37091;SDS011;23005;51.998;4.502;2023-05-02T01:09:29;19.33;;;6.85;;
37091;SDS011;23005;51.998;4.502;2023-05-02T01:10:58;26.35;;;7.43;;
37091;SDS011;23005;51.998;4.502;2023-05-02T01:12:25;23.35;;;8.10;;
37091;SDS011;23005;51.998;4.502;2023-05-02T01:13:47;26.75;;;8.02;;
37091;SDS011;23005;51.998;4.502;2023-05-02T01:15:08;30.05;;;6.32;;
37091;SDS011;23005;51.998;4.502;2023-05-02T01:16:31;27.33;;;5.68;;
37091;SDS011;23005;51.998;4.502;2023-05-02T01:17:52;24.88;;;5.45;;
37091;SDS011;23005;51.998;4.502;2023-05-02T01:19:18;19.10;;;4.78;;
37091;SDS011;23005;51.998;4.502;2023-05-02T01:20:43;22.52;;;4.30;;
37091;SDS011;23005;51.998;4.502;2023-05-02T01:22:06;22.45;;;4.80;;
37091;SDS011;23005;51.998;4.502;2023-05-02T01:23:30;25.13;;;4.90;;
37091;SDS011;23005;51.998;4.502;2023-05-02T01:24:57;16.80;;;3.97;;
37091;SDS011;23005;51.998;4.502;2023-05-02T01:26:23;22.23;;;4.70;;
37091;SDS011;23005;51.998;4.502;2023-05-02T01:27:47;24.00;;;5.22;;
37091;SDS011;23005;51.998;4.502;2023-05-02T01:29:13;19.85;;;4.90;;
37091;SDS011;23005;51.998;4.502;2023-05-02T01:30:35;17.77;;;4.05;;
37091;SDS011;23005;51.998;4.502;2023-05-02T01:31:58;16.88;;;3.92;;
37091;SDS011;23005;51.998;4.502;2023-05-02T01:33:20;18.20;;;3.53;;
37091;SDS011;23005;51.998;4.502;2023-05-02T01:34:42;15.55;;;3.63;;
37091;SDS011;23005;51.998;4.502;2023-05-02T01:36:04;15.77;;;4.28;;
37091;SDS011;23005;51.998;4.502;2023-05-02T01:38:45;20.90;;;4.25;;
37091;SDS011;23005;51.998;4.502;2023-05-02T01:40:07;18.17;;;3.90;;
37091;SDS011;23005;51.998;4.502;2023-05-02T01:41:29;25.58;;;4.30;;
37091;SDS011;23005;51.998;4.502;2023-05-02T01:42:50;19.55;;;5.45;;
37091;SDS011;23005;51.998;4.502;2023-05-02T01:44:13;25.38;;;5.05;;
37091;SDS011;23005;51.998;4.502;2023-05-02T01:45:34;33.85;;;6.53;;
37091;SDS011;23005;51.998;4.502;2023-05-02T01:46:55;34.78;;;6.40;;
37091;SDS011;23005;51.998;4.502;2023-05-02T01:48:17;30.30;;;5.78;;
37091;SDS011;23005;51.998;4.502;2023-05-02T01:49:38;32.65;;;5.45;;
37091;SDS011;23005;51.998;4.502;2023-05-02T01:51:00;26.95;;;6.18;;
37091;SDS011;23005;51.998;4.502;2023-05-02T01:52:22;23.55;;;4.97;;
37091;SDS011;23005;51.998;4.502;2023-05-02T01:55:05;29.27;;;6.22;;
37091;SDS011;23005;51.998;4.502;2023-05-02T01:56:28;33.53;;;6.78;;
37091;SDS011;23005;51.998;4.502;2023-05-02T01:57:51;29.77;;;6.13;;
37091;SDS011;23005;51.998;4.502;2023-05-02T01:59:16;22.27;;;4.80;;
37091;SDS011;23005;51.998;4.502;2023-05-02T02:00:38;22.67;;;5.25;;
37091;SDS011;23005;51.998;4.502;2023-05-02T02:02:00;22.38;;;5.18;;
37091;SDS011;23005;51.998;4.502;2023-05-02T02:03:21;25.52;;;4.70;;
37091;SDS011;23005;51.998;4.502;2023-05-02T02:04:43;16.88;;;3.80;;
37091;SDS011;23005;51.998;4.502;2023-05-02T02:06:04;14.98;;;4.47;;
37091;SDS011;23005;51.998;4.502;2023-05-02T02:07:26;15.93;;;3.80;;
37091;SDS011;23005;51.998;4.502;2023-05-02T02:08:46;18.98;;;3.92;;
37091;SDS011;23005;51.998;4.502;2023-05-02T02:10:07;15.07;;;3.45;;
37091;SDS011;23005;51.998;4.502;2023-05-02T02:11:30;16.02;;;4.30;;
37091;SDS011;23005;51.998;4.502;2023-05-02T02:12:56;19.92;;;4.80;;
37091;SDS011;23005;51.998;4.502;2023-05-02T02:14:24;11.82;;;3.45;;
37091;SDS011;23005;51.998;4.502;2023-05-02T02:15:47;13.98;;;3.60;;
37091;SDS011;23005;51.998;4.502;2023-05-02T02:17:11;21.45;;;3.90;;
37091;SDS011;23005;51.998;4.502;2023-05-02T02:18:34;29.52;;;4.47;;
37091;SDS011;23005;51.998;4.502;2023-05-02T02:19:56;19.35;;;4.00;;
37091;SDS011;23005;51.998;4.502;2023-05-02T02:21:20;20.38;;;3.45;;
37091;SDS011;23005;51.998;4.502;2023-05-02T02:22:43;10.77;;;3.40;;
37091;SDS011;23005;51.998;4.502;2023-05-02T02:24:05;18.48;;;3.72;;
37091;SDS011;23005;51.998;4.502;2023-05-02T02:25:26;20.35;;;4.10;;
37091;SDS011;23005;51.998;4.502;2023-05-02T02:26:46;22.15;;;3.80;;
37091;SDS011;23005;51.998;4.502;2023-05-02T02:28:07;16.83;;;3.58;;
37091;SDS011;23005;51.998;4.502;2023-05-02T02:29:29;14.02;;;3.63;;
37091;SDS011;23005;51.998;4.502;2023-05-02T02:30:50;14.10;;;3.58;;
37091;SDS011;23005;51.998;4.502;2023-05-02T02:32:11;21.75;;;3.83;;
37091;SDS011;23005;51.998;4.502;2023-05-02T02:33:31;19.15;;;3.45;;
37091;SDS011;23005;51.998;4.502;2023-05-02T02:34:52;19.50;;;4.00;;
37091;SDS011;23005;51.998;4.502;2023-05-02T02:36:14;17.88;;;4.35;;
37091;SDS011;23005;51.998;4.502;2023-05-02T02:37:38;18.55;;;3.67;;
37091;SDS011;23005;51.998;4.502;2023-05-02T02:39:11;21.35;;;3.20;;
37091;SDS011;23005;51.998;4.502;2023-05-02T02:40:42;18.65;;;3.75;;
37091;SDS011;23005;51.998;4.502;2023-05-02T02:42:06;19.35;;;3.55;;
37091;SDS011;23005;51.998;4.502;2023-05-02T02:43:32;18.40;;;3.20;;
37091;SDS011;23005;51.998;4.502;2023-05-02T02:44:59;16.27;;;3.08;;
37091;SDS011;23005;51.998;4.502;2023-05-02T02:46:27;15.00;;;3.13;;
37091;SDS011;23005;51.998;4.502;2023-05-02T02:47:52;10.35;;;2.88;;
37091;SDS011;23005;51.998;4.502;2023-05-02T02:49:20;20.00;;;2.92;;
37091;SDS011;23005;51.998;4.502;2023-05-02T02:50:51;12.20;;;2.53;;
37091;SDS011;23005;51.998;4.502;2023-05-02T02:52:20;7.75;;;2.25;;
37091;SDS011;23005;51.998;4.502;2023-05-02T02:53:46;13.88;;;2.95;;
37091;SDS011;23005;51.998;4.502;2023-05-02T02:55:12;13.70;;;3.38;;
37091;SDS011;23005;51.998;4.502;2023-05-02T02:56:39;23.85;;;3.55;;
37091;SDS011;23005;51.998;4.502;2023-05-02T02:58:03;13.93;;;2.75;;
37091;SDS011;23005;51.998;4.502;2023-05-02T02:59:35;11.98;;;2.50;;
37091;SDS011;23005;51.998;4.502;2023-05-02T03:01:01;19.88;;;3.22;;
37091;SDS011;23005;51.998;4.502;2023-05-02T03:02:25;18.02;;;3.50;;
37091;SDS011;23005;51.998;4.502;2023-05-02T03:03:48;13.57;;;2.65;;
37091;SDS011;23005;51.998;4.502;2023-05-02T03:05:10;12.13;;;2.65;;
37091;SDS011;23005;51.998;4.502;2023-05-02T03:06:31;17.58;;;3.40;;
37091;SDS011;23005;51.998;4.502;2023-05-02T03:07:52;11.77;;;2.37;;
37091;SDS011;23005;51.998;4.502;2023-05-02T03:09:15;12.68;;;2.65;;
37091;SDS011;23005;51.998;4.502;2023-05-02T03:10:36;8.32;;;2.25;;
37091;SDS011;23005;51.998;4.502;2023-05-02T03:11:56;13.35;;;3.03;;
37091;SDS011;23005;51.998;4.502;2023-05-02T03:13:17;13.45;;;2.30;;
37091;SDS011;23005;51.998;4.502;2023-05-02T03:14:38;17.15;;;2.78;;
37091;SDS011;23005;51.998;4.502;2023-05-02T03:16:30;12.52;;;2.45;;
37091;SDS011;23005;51.998;4.502;2023-05-02T03:17:53;11.50;;;2.65;;
37091;SDS011;23005;51.998;4.502;2023-05-02T03:19:13;13.18;;;2.40;;
37091;SDS011;23005;51.998;4.502;2023-05-02T03:20:33;10.85;;;2.28;;
37091;SDS011;23005;51.998;4.502;2023-05-02T03:21:55;12.60;;;2.42;;
37091;SDS011;23005;51.998;4.502;2023-05-02T03:23:15;17.50;;;2.90;;
37091;SDS011;23005;51.998;4.502;2023-05-02T03:24:36;13.30;;;2.67;;
37091;SDS011;23005;51.998;4.502;2023-05-02T03:25:56;10.20;;;2.08;;
37091;SDS011;23005;51.998;4.502;2023-05-02T03:27:17;19.80;;;2.92;;
37091;SDS011;23005;51.998;4.502;2023-05-02T03:28:37;10.85;;;2.78;;
37091;SDS011;23005;51.998;4.502;2023-05-02T03:29:58;9.85;;;2.47;;
37091;SDS011;23005;51.998;4.502;2023-05-02T03:32:45;13.75;;;2.53;;
37091;SDS011;23005;51.998;4.502;2023-05-02T03:34:06;19.65;;;3.05;;
37091;SDS011;23005;51.998;4.502;2023-05-02T03:35:26;11.30;;;2.50;;
37091;SDS011;23005;51.998;4.502;2023-05-02T03:36:47;12.40;;;2.50;;
37091;SDS011;23005;51.998;4.502;2023-05-02T03:38:07;15.85;;;2.78;;
37091;SDS011;23005;51.998;4.502;2023-05-02T03:39:28;18.35;;;3.17;;
37091;SDS011;23005;51.998;4.502;2023-05-02T03:40:49;12.88;;;2.50;;
37091;SDS011;23005;51.998;4.502;2023-05-02T03:42:09;8.50;;;2.50;;
37091;SDS011;23005;51.998;4.502;2023-05-02T03:43:30;17.10;;;2.50;;
37091;SDS011;23005;51.998;4.502;2023-05-02T03:44:51;12.18;;;2.67;;
37091;SDS011;23005;51.998;4.502;2023-05-02T03:46:12;19.13;;;3.28;;
37091;SDS011;23005;51.998;4.502;2023-05-02T03:47:34;13.35;;;3.05;;
37091;SDS011;23005;51.998;4.502;2023-05-02T03:48:56;12.55;;;2.95;;
37091;SDS011;23005;51.998;4.502;2023-05-02T03:50:16;16.85;;;3.50;;
37091;SDS011;23005;51.998;4.502;2023-05-02T03:51:37;14.35;;;3.05;;
37091;SDS011;23005;51.998;4.502;2023-05-02T03:52:57;19.70;;;3.17;;
37091;SDS011;23005;51.998;4.502;2023-05-02T03:54:17;19.02;;;3.10;;
37091;SDS011;23005;51.998;4.502;2023-05-02T03:55:38;20.08;;;3.10;;
37091;SDS011;23005;51.998;4.502;2023-05-02T03:56:59;11.38;;;2.55;;
37091;SDS011;23005;51.998;4.502;2023-05-02T03:58:19;11.65;;;3.20;;
37091;SDS011;23005;51.998;4.502;2023-05-02T03:59:40;14.80;;;2.40;;
37091;SDS011;23005;51.998;4.502;2023-05-02T04:01:01;12.90;;;2.55;;
37091;SDS011;23005;51.998;4.502;2023-05-02T04:02:21;11.73;;;2.72;;
37091;SDS011;23005;51.998;4.502;2023-05-02T04:03:44;12.95;;;2.33;;
37091;SDS011;23005;51.998;4.502;2023-05-02T04:05:04;9.77;;;2.63;;
37091;SDS011;23005;51.998;4.502;2023-05-02T04:06:25;10.45;;;2.50;;
37091;SDS011;23005;51.998;4.502;2023-05-02T04:07:46;14.20;;;2.72;;
37091;SDS011;23005;51.998;4.502;2023-05-02T04:09:06;10.55;;;2.33;;
37091;SDS011;23005;51.998;4.502;2023-05-02T04:10:27;10.63;;;2.30;;
37091;SDS011;23005;51.998;4.502;2023-05-02T04:11:48;12.05;;;2.75;;
37091;SDS011;23005;51.998;4.502;2023-05-02T04:13:08;13.70;;;3.30;;
37091;SDS011;23005;51.998;4.502;2023-05-02T04:14:29;10.67;;;2.27;;
37091;SDS011;23005;51.998;4.502;2023-05-02T04:15:49;13.23;;;2.47;;
37091;SDS011;23005;51.998;4.502;2023-05-02T04:17:10;14.90;;;2.53;;
37091;SDS011;23005;51.998;4.502;2023-05-02T04:18:30;11.15;;;2.40;;
37091;SDS011;23005;51.998;4.502;2023-05-02T04:19:52;22.50;;;2.80;;
37091;SDS011;23005;51.998;4.502;2023-05-02T04:21:13;16.30;;;2.90;;
37091;SDS011;23005;51.998;4.502;2023-05-02T04:22:33;13.00;;;2.80;;
37091;SDS011;23005;51.998;4.502;2023-05-02T04:23:54;22.77;;;3.20;;
37091;SDS011;23005;51.998;4.502;2023-05-02T04:25:14;19.63;;;3.47;;
37091;SDS011;23005;51.998;4.502;2023-05-02T04:26:35;10.88;;;2.42;;
37091;SDS011;23005;51.998;4.502;2023-05-02T04:27:56;21.13;;;3.50;;
37091;SDS011;23005;51.998;4.502;2023-05-02T04:29:17;18.65;;;2.70;;
37091;SDS011;23005;51.998;4.502;2023-05-02T04:30:38;16.92;;;2.95;;
37091;SDS011;23005;51.998;4.502;2023-05-02T04:31:58;17.93;;;3.77;;
37091;SDS011;23005;51.998;4.502;2023-05-02T04:33:19;12.32;;;2.90;;
37091;SDS011;23005;51.998;4.502;2023-05-02T04:34:39;17.77;;;3.28;;
37091;SDS011;23005;51.998;4.502;2023-05-02T04:36:02;22.30;;;2.90;;
37091;SDS011;23005;51.998;4.502;2023-05-02T04:37:22;15.40;;;2.95;;
37091;SDS011;23005;51.998;4.502;2023-05-02T04:38:44;17.27;;;3.70;;
37091;SDS011;23005;51.998;4.502;2023-05-02T04:40:04;24.00;;;4.45;;
37091;SDS011;23005;51.998;4.502;2023-05-02T04:41:26;13.35;;;2.67;;
37091;SDS011;23005;51.998;4.502;2023-05-02T04:42:46;17.30;;;3.03;;
37091;SDS011;23005;51.998;4.502;2023-05-02T04:44:07;21.33;;;3.38;;
37091;SDS011;23005;51.998;4.502;2023-05-02T04:45:27;21.10;;;3.05;;
37091;SDS011;23005;51.998;4.502;2023-05-02T04:46:48;16.85;;;3.17;;
37091;SDS011;23005;51.998;4.502;2023-05-02T04:48:09;19.00;;;3.60;;
37091;SDS011;23005;51.998;4.502;2023-05-02T04:49:29;13.60;;;2.40;;
37091;SDS011;23005;51.998;4.502;2023-05-02T04:50:50;17.92;;;2.97;;
37091;SDS011;23005;51.998;4.502;2023-05-02T04:52:12;20.67;;;3.28;;
37091;SDS011;23005;51.998;4.502;2023-05-02T04:53:33;16.05;;;2.90;;
37091;SDS011;23005;51.998;4.502;2023-05-02T04:54:53;18.63;;;3.60;;
37091;SDS011;23005;51.998;4.502;2023-05-02T04:56:14;18.70;;;3.40;;
37091;SDS011;23005;51.998;4.502;2023-05-02T04:57:34;18.53;;;3.10;;
37091;SDS011;23005;51.998;4.502;2023-05-02T04:58:55;13.73;;;3.22;;
37091;SDS011;23005;51.998;4.502;2023-05-02T05:00:16;21.67;;;3.65;;
37091;SDS011;23005;51.998;4.502;2023-05-02T05:01:36;15.70;;;3.75;;
37091;SDS011;23005;51.998;4.502;2023-05-02T05:02:57;15.93;;;3.38;;
37091;SDS011;23005;51.998;4.502;2023-05-02T05:04:20;21.92;;;3.85;;
37091;SDS011;23005;51.998;4.502;2023-05-02T05:05:41;19.80;;;3.38;;
37091;SDS011;23005;51.998;4.502;2023-05-02T05:07:02;29.70;;;4.13;;
37091;SDS011;23005;51.998;4.502;2023-05-02T05:08:24;16.60;;;3.47;;
37091;SDS011;23005;51.998;4.502;2023-05-02T05:09:44;24.75;;;3.97;;
37091;SDS011;23005;51.998;4.502;2023-05-02T05:11:05;20.30;;;3.63;;
37091;SDS011;23005;51.998;4.502;2023-05-02T05:12:25;16.73;;;3.73;;
37091;SDS011;23005;51.998;4.502;2023-05-02T05:13:58;19.35;;;3.70;;
37091;SDS011;23005;51.998;4.502;2023-05-02T05:15:19;26.23;;;3.97;;
37091;SDS011;23005;51.998;4.502;2023-05-02T05:16:40;20.17;;;3.92;;
37091;SDS011;23005;51.998;4.502;2023-05-02T05:18:01;26.27;;;4.25;;
37091;SDS011;23005;51.998;4.502;2023-05-02T05:19:22;23.83;;;3.70;;
37091;SDS011;23005;51.998;4.502;2023-05-02T05:20:42;27.40;;;4.87;;
37091;SDS011;23005;51.998;4.502;2023-05-02T05:22:03;19.23;;;3.75;;
37091;SDS011;23005;51.998;4.502;2023-05-02T05:24:38;25.20;;;4.10;;
37091;SDS011;23005;51.998;4.502;2023-05-02T05:26:07;24.95;;;4.10;;
37091;SDS011;23005;51.998;4.502;2023-05-02T05:27:29;21.95;;;4.28;;
37091;SDS011;23005;51.998;4.502;2023-05-02T05:28:53;26.90;;;4.43;;
37091;SDS011;23005;51.998;4.502;2023-05-02T05:30:13;22.92;;;4.45;;
37091;SDS011;23005;51.998;4.502;2023-05-02T05:31:37;23.05;;;4.32;;
37091;SDS011;23005;51.998;4.502;2023-05-02T05:32:58;22.73;;;4.30;;
37091;SDS011;23005;51.998;4.502;2023-05-02T05:34:21;24.90;;;4.72;;
37091;SDS011;23005;51.998;4.502;2023-05-02T05:35:42;20.85;;;3.88;;
37091;SDS011;23005;51.998;4.502;2023-05-02T05:37:02;17.38;;;3.60;;
37091;SDS011;23005;51.998;4.502;2023-05-02T05:38:26;20.85;;;3.92;;
37091;SDS011;23005;51.998;4.502;2023-05-02T05:39:48;16.30;;;3.85;;
37091;SDS011;23005;51.998;4.502;2023-05-02T05:41:18;17.05;;;3.75;;
37091;SDS011;23005;51.998;4.502;2023-05-02T05:42:44;16.08;;;3.47;;
37091;SDS011;23005;51.998;4.502;2023-05-02T05:44:04;20.80;;;3.75;;
37091;SDS011;23005;51.998;4.502;2023-05-02T05:45:27;20.65;;;4.53;;
37091;SDS011;23005;51.998;4.502;2023-05-02T05:46:51;17.92;;;4.05;;
37091;SDS011;23005;51.998;4.502;2023-05-02T05:48:15;15.20;;;2.97;;
37091;SDS011;23005;51.998;4.502;2023-05-02T05:49:36;17.35;;;3.92;;
37091;SDS011;23005;51.998;4.502;2023-05-02T05:51:02;16.88;;;3.92;;
37091;SDS011;23005;51.998;4.502;2023-05-02T05:52:26;26.08;;;3.78;;
37091;SDS011;23005;51.998;4.502;2023-05-02T05:53:50;14.75;;;3.30;;
37091;SDS011;23005;51.998;4.502;2023-05-02T05:55:12;16.63;;;3.33;;
37091;SDS011;23005;51.998;4.502;2023-05-02T05:56:38;17.40;;;3.50;;
37091;SDS011;23005;51.998;4.502;2023-05-02T05:57:59;15.95;;;3.20;;
37091;SDS011;23005;51.998;4.502;2023-05-02T05:59:20;20.45;;;3.72;;
37091;SDS011;23005;51.998;4.502;2023-05-02T06:00:41;20.92;;;3.88;;
37091;SDS011;23005;51.998;4.502;2023-05-02T06:02:01;13.70;;;3.72;;
37091;SDS011;23005;51.998;4.502;2023-05-02T06:03:18;17.33;;;4.03;;
37091;SDS011;23005;51.998;4.502;2023-05-02T06:06:00;23.08;;;4.13;;
37091;SDS011;23005;51.998;4.502;2023-05-02T06:07:21;21.58;;;3.75;;
37091;SDS011;23005;51.998;4.502;2023-05-02T06:08:43;14.75;;;3.60;;
37091;SDS011;23005;51.998;4.502;2023-05-02T06:10:04;24.48;;;3.88;;
37091;SDS011;23005;51.998;4.502;2023-05-02T06:11:29;18.50;;;4.45;;
37091;SDS011;23005;51.998;4.502;2023-05-02T06:15:16;18.55;;;3.60;;
37091;SDS011;23005;51.998;4.502;2023-05-02T06:16:36;16.38;;;3.35;;
37091;SDS011;23005;51.998;4.502;2023-05-02T06:17:58;14.10;;;3.17;;
37091;SDS011;23005;51.998;4.502;2023-05-02T06:19:18;18.42;;;3.63;;
37091;SDS011;23005;51.998;4.502;2023-05-02T06:20:39;16.55;;;3.67;;
37091;SDS011;23005;51.998;4.502;2023-05-02T06:22:00;19.08;;;3.85;;
37091;SDS011;23005;51.998;4.502;2023-05-02T06:23:25;18.48;;;3.47;;
37091;SDS011;23005;51.998;4.502;2023-05-02T06:24:45;20.00;;;4.00;;
37091;SDS011;23005;51.998;4.502;2023-05-02T06:26:06;15.45;;;3.97;;
37091;SDS011;23005;51.998;4.502;2023-05-02T06:27:28;23.05;;;4.00;;
37091;SDS011;23005;51.998;4.502;2023-05-02T06:28:53;21.33;;;4.10;;
37091;SDS011;23005;51.998;4.502;2023-05-02T06:30:14;21.33;;;3.90;;
37091;SDS011;23005;51.998;4.502;2023-05-02T06:31:34;21.98;;;4.63;;
37091;SDS011;23005;51.998;4.502;2023-05-02T06:33:01;22.48;;;4.10;;
37091;SDS011;23005;51.998;4.502;2023-05-02T06:34:24;20.98;;;4.30;;
37091;SDS011;23005;51.998;4.502;2023-05-02T06:35:49;19.93;;;4.57;;
37091;SDS011;23005;51.998;4.502;2023-05-02T06:37:11;28.27;;;4.60;;
37091;SDS011;23005;51.998;4.502;2023-05-02T06:38:31;20.90;;;4.20;;
37091;SDS011;23005;51.998;4.502;2023-05-02T06:39:56;27.08;;;4.05;;
37091;SDS011;23005;51.998;4.502;2023-05-02T06:41:17;21.92;;;3.92;;
37091;SDS011;23005;51.998;4.502;2023-05-02T06:42:42;16.73;;;4.03;;
37091;SDS011;23005;51.998;4.502;2023-05-02T06:46:13;22.50;;;3.72;;
37091;SDS011;23005;51.998;4.502;2023-05-02T06:47:34;26.17;;;4.00;;
37091;SDS011;23005;51.998;4.502;2023-05-02T06:48:55;22.75;;;3.42;;
37091;SDS011;23005;51.998;4.502;2023-05-02T06:50:16;21.65;;;3.90;;
37091;SDS011;23005;51.998;4.502;2023-05-02T06:51:39;19.23;;;3.90;;
37091;SDS011;23005;51.998;4.502;2023-05-02T06:53:03;26.02;;;3.83;;
37091;SDS011;23005;51.998;4.502;2023-05-02T06:54:29;16.05;;;3.55;;
37091;SDS011;23005;51.998;4.502;2023-05-02T06:55:50;14.27;;;3.58;;
37091;SDS011;23005;51.998;4.502;2023-05-02T06:57:11;21.67;;;4.13;;
37091;SDS011;23005;51.998;4.502;2023-05-02T06:58:36;27.17;;;4.15;;
37091;SDS011;23005;51.998;4.502;2023-05-02T06:59:57;14.85;;;3.22;;
37091;SDS011;23005;51.998;4.502;2023-05-02T07:01:21;13.95;;;3.30;;
37091;SDS011;23005;51.998;4.502;2023-05-02T07:02:45;14.82;;;3.30;;
37091;SDS011;23005;51.998;4.502;2023-05-02T07:04:06;18.65;;;4.05;;
37091;SDS011;23005;51.998;4.502;2023-05-02T07:05:27;15.38;;;3.47;;
37091;SDS011;23005;51.998;4.502;2023-05-02T07:06:49;12.40;;;3.25;;
37091;SDS011;23005;51.998;4.502;2023-05-02T07:08:10;22.50;;;4.22;;
37091;SDS011;23005;51.998;4.502;2023-05-02T07:09:30;21.33;;;4.27;;
37091;SDS011;23005;51.998;4.502;2023-05-02T07:10:51;13.23;;;3.38;;
37091;SDS011;23005;51.998;4.502;2023-05-02T07:12:12;12.63;;;3.28;;
37091;SDS011;23005;51.998;4.502;2023-05-02T07:14:46;18.40;;;3.05;;
37091;SDS011;23005;51.998;4.502;2023-05-02T07:16:07;15.55;;;2.97;;
37091;SDS011;23005;51.998;4.502;2023-05-02T07:17:28;18.55;;;3.42;;
37091;SDS011;23005;51.998;4.502;2023-05-02T07:18:48;16.83;;;3.95;;
37091;SDS011;23005;51.998;4.502;2023-05-02T07:20:12;19.92;;;2.97;;
37091;SDS011;23005;51.998;4.502;2023-05-02T07:21:33;15.52;;;3.65;;
37091;SDS011;23005;51.998;4.502;2023-05-02T07:24:13;16.95;;;3.40;;
37091;SDS011;23005;51.998;4.502;2023-05-02T07:25:34;11.45;;;3.05;;
37091;SDS011;23005;51.998;4.502;2023-05-02T07:26:55;17.88;;;3.45;;
37091;SDS011;23005;51.998;4.502;2023-05-02T07:28:16;18.45;;;3.55;;
37091;SDS011;23005;51.998;4.502;2023-05-02T07:29:36;13.32;;;3.33;;
37091;SDS011;23005;51.998;4.502;2023-05-02T07:30:59;12.27;;;3.17;;
37091;SDS011;23005;51.998;4.502;2023-05-02T07:32:23;21.23;;;3.65;;
37091;SDS011;23005;51.998;4.502;2023-05-02T07:33:45;13.82;;;3.17;;
37091;SDS011;23005;51.998;4.502;2023-05-02T07:35:06;17.45;;;3.42;;
37091;SDS011;23005;51.998;4.502;2023-05-02T07:36:28;14.10;;;3.60;;
37091;SDS011;23005;51.998;4.502;2023-05-02T07:37:49;14.40;;;3.10;;
37091;SDS011;23005;51.998;4.502;2023-05-02T07:39:10;15.18;;;3.28;;
37091;SDS011;23005;51.998;4.502;2023-05-02T07:40:30;20.95;;;3.90;;
37091;SDS011;23005;51.998;4.502;2023-05-02T07:41:51;20.17;;;3.70;;
37091;SDS011;23005;51.998;4.502;2023-05-02T07:44:37;14.80;;;3.38;;
37091;SDS011;23005;51.998;4.502;2023-05-02T07:45:57;15.83;;;3.37;;
37091;SDS011;23005;51.998;4.502;2023-05-02T07:47:21;12.30;;;3.13;;
37091;SDS011;23005;51.998;4.502;2023-05-02T07:48:43;15.05;;;3.03;;
37091;SDS011;23005;51.998;4.502;2023-05-02T07:50:04;18.15;;;3.30;;
37091;SDS011;23005;51.998;4.502;2023-05-02T07:51:25;15.85;;;2.75;;
37091;SDS011;23005;51.998;4.502;2023-05-02T07:52:46;21.87;;;3.67;;
37091;SDS011;23005;51.998;4.502;2023-05-02T07:55:15;18.85;;;3.10;;
37091;SDS011;23005;51.998;4.502;2023-05-02T07:56:36;19.80;;;3.57;;
37091;SDS011;23005;51.998;4.502;2023-05-02T07:57:57;17.15;;;3.70;;
37091;SDS011;23005;51.998;4.502;2023-05-02T07:59:18;15.57;;;3.38;;
37091;SDS011;23005;51.998;4.502;2023-05-02T08:00:38;10.88;;;2.83;;
37091;SDS011;23005;51.998;4.502;2023-05-02T08:02:02;16.23;;;3.28;;
37091;SDS011;23005;51.998;4.502;2023-05-02T08:03:22;12.32;;;2.88;;
37091;SDS011;23005;51.998;4.502;2023-05-02T08:04:47;17.88;;;2.95;;
37091;SDS011;23005;51.998;4.502;2023-05-02T08:06:08;14.73;;;2.83;;
37091;SDS011;23005;51.998;4.502;2023-05-02T08:07:30;13.20;;;3.17;;
37091;SDS011;23005;51.998;4.502;2023-05-02T08:08:51;10.32;;;2.53;;
37091;SDS011;23005;51.998;4.502;2023-05-02T08:10:12;14.70;;;3.22;;
37091;SDS011;23005;51.998;4.502;2023-05-02T08:11:32;10.90;;;2.88;;
37091;SDS011;23005;51.998;4.502;2023-05-02T08:14:10;17.35;;;3.05;;
37091;SDS011;23005;51.998;4.502;2023-05-02T08:15:30;17.40;;;2.85;;
37091;SDS011;23005;51.998;4.502;2023-05-02T08:16:51;17.90;;;3.08;;
37091;SDS011;23005;51.998;4.502;2023-05-02T08:18:13;15.75;;;3.08;;
37091;SDS011;23005;51.998;4.502;2023-05-02T08:19:34;11.15;;;2.90;;
37091;SDS011;23005;51.998;4.502;2023-05-02T08:20:55;17.33;;;2.90;;
37091;SDS011;23005;51.998;4.502;2023-05-02T08:22:15;12.98;;;3.30;;
37091;SDS011;23005;51.998;4.502;2023-05-02T08:23:36;11.63;;;3.20;;
37091;SDS011;23005;51.998;4.502;2023-05-02T08:24:56;13.25;;;2.85;;